sensor_id;sensor_type;location;lat;lon;timestamp;pressure;altitude;pressure_sealevel;temperature
50496;BMP280;38806;51.554;5.704;2022-10-22T00:01:00;98220.16;;;11.57
50496;BMP280;38806;51.554;5.704;2022-10-22T00:03:00;98149.31;;;11.80
50496;BMP280;38806;51.554;5.704;2022-10-22T00:05:00;98111.75;;;11.89
50496;BMP280;38806;51.554;5.704;2022-10-22T00:07:00;98074.00;;;11.97
50496;BMP280;38806;51.554;5.704;2022-10-22T00:09:01;98154.56;;;11.78
50496;BMP280;38806;51.554;5.704;2022-10-22T00:11:09;98258.06;;;11.44
50496;BMP280;38806;51.554;5.704;2022-10-22T00:13:10;98327.38;;;11.21
50496;BMP280;38806;51.554;5.704;2022-10-22T00:15:11;98365.22;;;11.08
50496;BMP280;38806;51.554;5.704;2022-10-22T00:17:11;98401.41;;;10.91
50496;BMP280;38806;51.554;5.704;2022-10-22T00:19:12;98415.38;;;10.90
50496;BMP280;38806;51.554;5.704;2022-10-22T00:21:12;98465.38;;;10.70
50496;BMP280;38806;51.554;5.704;2022-10-22T00:23:12;98452.81;;;10.73
50496;BMP280;38806;51.554;5.704;2022-10-22T00:25:13;98345.84;;;11.01
50496;BMP280;38806;51.554;5.704;2022-10-22T00:27:13;98309.28;;;11.14
50496;BMP280;38806;51.554;5.704;2022-10-22T00:29:13;98192.91;;;11.53
50496;BMP280;38806;51.554;5.704;2022-10-22T00:31:14;98178.19;;;11.54
50496;BMP280;38806;51.554;5.704;2022-10-22T00:33:14;98235.13;;;11.35
50496;BMP280;38806;51.554;5.704;2022-10-22T00:35:15;98269.09;;;11.23
50496;BMP280;38806;51.554;5.704;2022-10-22T00:37:15;98268.19;;;11.21
50496;BMP280;38806;51.554;5.704;2022-10-22T00:39:17;98134.75;;;11.58
50496;BMP280;38806;51.554;5.704;2022-10-22T00:41:18;98176.09;;;11.45
50496;BMP280;38806;51.554;5.704;2022-10-22T00:43:19;98164.06;;;11.46
50496;BMP280;38806;51.554;5.704;2022-10-22T00:45:25;98162.63;;;11.45
50496;BMP280;38806;51.554;5.704;2022-10-22T00:47:27;98096.31;;;11.65
50496;BMP280;38806;51.554;5.704;2022-10-22T00:49:29;98178.59;;;11.43
50496;BMP280;38806;51.554;5.704;2022-10-22T00:51:32;98134.44;;;11.54
50496;BMP280;38806;51.554;5.704;2022-10-22T00:53:54;98205.75;;;11.30
50496;BMP280;38806;51.554;5.704;2022-10-22T00:55:56;98175.22;;;11.35
50496;BMP280;38806;51.554;5.704;2022-10-22T00:57:57;98130.53;;;11.47
50496;BMP280;38806;51.554;5.704;2022-10-22T00:59:57;98083.25;;;11.61
50496;BMP280;38806;51.554;5.704;2022-10-22T01:01:57;98046.00;;;11.75
50496;BMP280;38806;51.554;5.704;2022-10-22T01:03:58;98048.50;;;11.73
50496;BMP280;38806;51.554;5.704;2022-10-22T01:06:01;97956.06;;;11.95
50496;BMP280;38806;51.554;5.704;2022-10-22T01:08:02;97977.31;;;11.91
50496;BMP280;38806;51.554;5.704;2022-10-22T01:10:23;97857.69;;;12.12
50496;BMP280;38806;51.554;5.704;2022-10-22T01:14:50;97917.66;;;11.95
50496;BMP280;38806;51.554;5.704;2022-10-22T01:19:13;97984.63;;;11.74
50496;BMP280;38806;51.554;5.704;2022-10-22T01:21:44;97923.97;;;11.90
50496;BMP280;38806;51.554;5.704;2022-10-22T01:30:39;97903.16;;;11.90
50496;BMP280;38806;51.554;5.704;2022-10-22T01:32:45;97942.44;;;11.76
50496;BMP280;38806;51.554;5.704;2022-10-22T01:34:49;97945.91;;;11.69
50496;BMP280;38806;51.554;5.704;2022-10-22T01:36:51;97988.38;;;11.53
50496;BMP280;38806;51.554;5.704;2022-10-22T01:38:52;97973.69;;;11.54
50496;BMP280;38806;51.554;5.704;2022-10-22T01:40:54;97976.41;;;11.47
50496;BMP280;38806;51.554;5.704;2022-10-22T01:43:03;98043.13;;;11.23
50496;BMP280;38806;51.554;5.704;2022-10-22T01:45:11;97966.75;;;11.44
50496;BMP280;38806;51.554;5.704;2022-10-22T01:47:16;97960.81;;;11.45
50496;BMP280;38806;51.554;5.704;2022-10-22T01:49:34;97885.13;;;11.66
50496;BMP280;38806;51.554;5.704;2022-10-22T01:52:01;97885.13;;;11.66
50496;BMP280;38806;51.554;5.704;2022-10-22T01:54:13;98001.47;;;11.32
50496;BMP280;38806;51.554;5.704;2022-10-22T01:59:04;97934.25;;;11.49
50496;BMP280;38806;51.554;5.704;2022-10-22T02:01:38;97917.88;;;11.55
50496;BMP280;38806;51.554;5.704;2022-10-22T02:03:48;97843.94;;;11.73
50496;BMP280;38806;51.554;5.704;2022-10-22T02:05:54;97811.00;;;11.82
50496;BMP280;38806;51.554;5.704;2022-10-22T02:08:02;97769.16;;;11.98
50496;BMP280;38806;51.554;5.704;2022-10-22T02:10:05;97847.50;;;11.76
50496;BMP280;38806;51.554;5.704;2022-10-22T02:12:07;97868.56;;;11.70
50496;BMP280;38806;51.554;5.704;2022-10-22T02:14:09;97846.63;;;11.73
50496;BMP280;38806;51.554;5.704;2022-10-22T02:16:16;97929.81;;;11.44
50496;BMP280;38806;51.554;5.704;2022-10-22T02:18:21;97897.44;;;11.52
50496;BMP280;38806;51.554;5.704;2022-10-22T02:20:25;97866.81;;;11.64
50496;BMP280;38806;51.554;5.704;2022-10-22T02:22:26;97920.47;;;11.45
50496;BMP280;38806;51.554;5.704;2022-10-22T02:24:28;97848.31;;;11.68
50496;BMP280;38806;51.554;5.704;2022-10-22T02:26:38;97786.34;;;11.86
50496;BMP280;38806;51.554;5.704;2022-10-22T02:28:51;97739.22;;;11.94
50496;BMP280;38806;51.554;5.704;2022-10-22T02:30:56;97676.78;;;12.15
50496;BMP280;38806;51.554;5.704;2022-10-22T02:33:13;97776.44;;;11.88
50496;BMP280;38806;51.554;5.704;2022-10-22T02:35:19;97770.50;;;11.90
50496;BMP280;38806;51.554;5.704;2022-10-22T02:37:21;97774.63;;;11.91
50496;BMP280;38806;51.554;5.704;2022-10-22T02:39:23;97814.50;;;11.75
50496;BMP280;38806;51.554;5.704;2022-10-22T02:41:24;97863.09;;;11.60
50496;BMP280;38806;51.554;5.704;2022-10-22T02:43:24;97804.81;;;11.72
50496;BMP280;38806;51.554;5.704;2022-10-22T02:45:24;97834.69;;;11.66
50496;BMP280;38806;51.554;5.704;2022-10-22T02:47:25;97769.88;;;11.82
50496;BMP280;38806;51.554;5.704;2022-10-22T02:49:25;97731.84;;;11.95
50496;BMP280;38806;51.554;5.704;2022-10-22T02:51:25;97808.78;;;11.71
50496;BMP280;38806;51.554;5.704;2022-10-22T02:53:26;97767.75;;;11.80
50496;BMP280;38806;51.554;5.704;2022-10-22T02:55:26;97730.84;;;11.90
50496;BMP280;38806;51.554;5.704;2022-10-22T02:57:26;97840.31;;;11.61
50496;BMP280;38806;51.554;5.704;2022-10-22T02:59:26;97737.22;;;11.85
50496;BMP280;38806;51.554;5.704;2022-10-22T03:01:27;97807.22;;;11.68
50496;BMP280;38806;51.554;5.704;2022-10-22T03:03:27;97812.44;;;11.66
50496;BMP280;38806;51.554;5.704;2022-10-22T03:05:27;97818.38;;;11.64
50496;BMP280;38806;51.554;5.704;2022-10-22T03:07:27;97891.59;;;11.46
50496;BMP280;38806;51.554;5.704;2022-10-22T03:09:28;97872.22;;;11.47
50496;BMP280;38806;51.554;5.704;2022-10-22T03:11:28;97796.03;;;11.72
50496;BMP280;38806;51.554;5.704;2022-10-22T03:13:28;97806.09;;;11.71
50496;BMP280;38806;51.554;5.704;2022-10-22T03:15:29;97718.38;;;11.85
50496;BMP280;38806;51.554;5.704;2022-10-22T03:17:29;97721.06;;;11.85
50496;BMP280;38806;51.554;5.704;2022-10-22T03:19:29;97707.88;;;11.89
50496;BMP280;38806;51.554;5.704;2022-10-22T03:21:55;97846.16;;;11.50
50496;BMP280;38806;51.554;5.704;2022-10-22T03:23:56;97871.16;;;11.43
50496;BMP280;38806;51.554;5.704;2022-10-22T03:25:57;97891.19;;;11.32
50496;BMP280;38806;51.554;5.704;2022-10-22T03:28:02;97861.81;;;11.44
50496;BMP280;38806;51.554;5.704;2022-10-22T03:30:06;97852.50;;;11.45
50496;BMP280;38806;51.554;5.704;2022-10-22T03:32:06;97873.00;;;11.40
50496;BMP280;38806;51.554;5.704;2022-10-22T03:34:07;97867.75;;;11.42
50496;BMP280;38806;51.554;5.704;2022-10-22T03:36:08;97860.94;;;11.41
50496;BMP280;38806;51.554;5.704;2022-10-22T03:38:08;97824.09;;;11.51
50496;BMP280;38806;51.554;5.704;2022-10-22T03:40:09;97816.16;;;11.53
50496;BMP280;38806;51.554;5.704;2022-10-22T03:42:10;97881.28;;;11.34
50496;BMP280;38806;51.554;5.704;2022-10-22T03:44:13;97799.22;;;11.60
50496;BMP280;38806;51.554;5.704;2022-10-22T03:46:14;97830.59;;;11.48
50496;BMP280;38806;51.554;5.704;2022-10-22T03:48:15;97777.28;;;11.64
50496;BMP280;38806;51.554;5.704;2022-10-22T03:50:15;97832.31;;;11.53
50496;BMP280;38806;51.554;5.704;2022-10-22T03:52:16;97784.13;;;11.65
50496;BMP280;38806;51.554;5.704;2022-10-22T03:54:16;97855.19;;;11.45
50496;BMP280;38806;51.554;5.704;2022-10-22T03:56:17;97760.31;;;11.71
50496;BMP280;38806;51.554;5.704;2022-10-22T03:58:17;97806.03;;;11.61
50496;BMP280;38806;51.554;5.704;2022-10-22T04:00:17;97771.44;;;11.75
50496;BMP280;38806;51.554;5.704;2022-10-22T04:02:17;97765.50;;;11.59
50496;BMP280;38806;51.554;5.704;2022-10-22T04:04:18;97779.22;;;11.54
50496;BMP280;38806;51.554;5.704;2022-10-22T04:06:18;97756.88;;;11.61
50496;BMP280;38806;51.554;5.704;2022-10-22T04:08:18;97771.84;;;11.54
50496;BMP280;38806;51.554;5.704;2022-10-22T04:10:19;97809.28;;;11.43
50496;BMP280;38806;51.554;5.704;2022-10-22T04:12:19;97760.53;;;11.56
50496;BMP280;38806;51.554;5.704;2022-10-22T04:14:19;97705.81;;;11.71
50496;BMP280;38806;51.554;5.704;2022-10-22T04:16:20;97660.78;;;11.81
50496;BMP280;38806;51.554;5.704;2022-10-22T04:18:22;97707.91;;;11.72
50496;BMP280;38806;51.554;5.704;2022-10-22T04:20:22;97696.06;;;11.75
50496;BMP280;38806;51.554;5.704;2022-10-22T04:22:23;97726.88;;;11.64
50496;BMP280;38806;51.554;5.704;2022-10-22T04:24:23;97707.22;;;11.72
50496;BMP280;38806;51.554;5.704;2022-10-22T04:26:23;97650.72;;;11.81
50496;BMP280;38806;51.554;5.704;2022-10-22T04:28:24;97704.94;;;11.68
50496;BMP280;38806;51.554;5.704;2022-10-22T04:30:24;97684.88;;;11.79
50496;BMP280;38806;51.554;5.704;2022-10-22T04:32:27;97656.44;;;11.85
50496;BMP280;38806;51.554;5.704;2022-10-22T04:34:28;97683.47;;;11.78
50496;BMP280;38806;51.554;5.704;2022-10-22T04:36:28;97723.44;;;11.64
50496;BMP280;38806;51.554;5.704;2022-10-22T04:38:29;97626.00;;;11.92
50496;BMP280;38806;51.554;5.704;2022-10-22T04:40:29;97668.88;;;11.81
50496;BMP280;38806;51.554;5.704;2022-10-22T04:42:30;97622.72;;;11.94
50496;BMP280;38806;51.554;5.704;2022-10-22T04:44:30;97602.19;;;11.98
50496;BMP280;38806;51.554;5.704;2022-10-22T04:46:33;97629.25;;;11.91
50496;BMP280;38806;51.554;5.704;2022-10-22T04:48:35;97635.47;;;11.84
50496;BMP280;38806;51.554;5.704;2022-10-22T04:50:36;97706.22;;;11.67
50496;BMP280;38806;51.554;5.704;2022-10-22T04:52:36;97653.84;;;11.78
50496;BMP280;38806;51.554;5.704;2022-10-22T04:54:36;97665.91;;;11.77
50496;BMP280;38806;51.554;5.704;2022-10-22T04:56:36;97691.66;;;11.70
50496;BMP280;38806;51.554;5.704;2022-10-22T04:58:37;97745.81;;;11.57
50496;BMP280;38806;51.554;5.704;2022-10-22T05:00:38;97694.47;;;11.72
50496;BMP280;38806;51.554;5.704;2022-10-22T05:02:38;97801.28;;;11.35
50496;BMP280;38806;51.554;5.704;2022-10-22T05:04:38;97896.41;;;11.05
50496;BMP280;38806;51.554;5.704;2022-10-22T05:06:39;97841.41;;;11.23
50496;BMP280;38806;51.554;5.704;2022-10-22T05:08:39;97813.91;;;11.32
50496;BMP280;38806;51.554;5.704;2022-10-22T05:10:40;97765.44;;;11.50
50496;BMP280;38806;51.554;5.704;2022-10-22T05:12:40;97778.59;;;11.46
50496;BMP280;38806;51.554;5.704;2022-10-22T05:14:40;97719.75;;;11.59
50496;BMP280;38806;51.554;5.704;2022-10-22T05:16:40;97632.22;;;11.85
50496;BMP280;38806;51.554;5.704;2022-10-22T05:18:43;97652.19;;;11.82
50496;BMP280;38806;51.554;5.704;2022-10-22T05:20:43;97615.94;;;11.93
50496;BMP280;38806;51.554;5.704;2022-10-22T05:22:43;97654.69;;;11.80
50496;BMP280;38806;51.554;5.704;2022-10-22T05:24:44;97631.34;;;11.83
50496;BMP280;38806;51.554;5.704;2022-10-22T05:26:44;97615.78;;;11.91
50496;BMP280;38806;51.554;5.704;2022-10-22T05:28:45;97590.16;;;11.99
50496;BMP280;38806;51.554;5.704;2022-10-22T05:30:53;97490.41;;;12.26
50496;BMP280;38806;51.554;5.704;2022-10-22T05:32:54;97496.78;;;12.21
50496;BMP280;38806;51.554;5.704;2022-10-22T05:34:54;97463.59;;;12.28
50496;BMP280;38806;51.554;5.704;2022-10-22T05:36:54;97377.63;;;12.42
50496;BMP280;38806;51.554;5.704;2022-10-22T05:38:56;97349.69;;;12.47
50496;BMP280;38806;51.554;5.704;2022-10-22T05:41:02;97354.94;;;12.45
50496;BMP280;38806;51.554;5.704;2022-10-22T05:43:02;97298.16;;;12.62
50496;BMP280;38806;51.554;5.704;2022-10-22T05:45:05;97304.81;;;12.61
50496;BMP280;38806;51.554;5.704;2022-10-22T05:47:05;97282.69;;;12.63
50496;BMP280;38806;51.554;5.704;2022-10-22T05:49:06;97318.47;;;12.54
50496;BMP280;38806;51.554;5.704;2022-10-22T05:51:10;97297.44;;;12.62
50496;BMP280;38806;51.554;5.704;2022-10-22T05:53:11;97285.97;;;12.61
50496;BMP280;38806;51.554;5.704;2022-10-22T05:55:11;97350.97;;;12.46
50496;BMP280;38806;51.554;5.704;2022-10-22T05:57:14;97341.03;;;12.49
50496;BMP280;38806;51.554;5.704;2022-10-22T05:59:14;97347.56;;;12.46
50496;BMP280;38806;51.554;5.704;2022-10-22T06:01:15;97385.44;;;12.38
50496;BMP280;38806;51.554;5.704;2022-10-22T06:03:16;97370.25;;;12.43
50496;BMP280;38806;51.554;5.704;2022-10-22T06:05:16;97368.25;;;12.43
50496;BMP280;38806;51.554;5.704;2022-10-22T06:07:16;97375.63;;;12.43
50496;BMP280;38806;51.554;5.704;2022-10-22T06:09:21;97441.63;;;12.22
50496;BMP280;38806;51.554;5.704;2022-10-22T06:11:22;97452.97;;;12.21
50496;BMP280;38806;51.554;5.704;2022-10-22T06:13:23;97445.72;;;12.23
50496;BMP280;38806;51.554;5.704;2022-10-22T06:15:23;97442.91;;;12.21
50496;BMP280;38806;51.554;5.704;2022-10-22T06:17:23;97445.00;;;12.23
50496;BMP280;38806;51.554;5.704;2022-10-22T06:19:24;97433.28;;;12.28
50496;BMP280;38806;51.554;5.704;2022-10-22T06:21:25;97420.19;;;12.34
50496;BMP280;38806;51.554;5.704;2022-10-22T06:23:26;97425.44;;;12.32
50496;BMP280;38806;51.554;5.704;2022-10-22T06:25:26;97405.59;;;12.37
50496;BMP280;38806;51.554;5.704;2022-10-22T06:27:26;97457.91;;;12.24
50496;BMP280;38806;51.554;5.704;2022-10-22T06:29:27;97432.41;;;12.35
50496;BMP280;38806;51.554;5.704;2022-10-22T06:31:28;97460.78;;;12.26
50496;BMP280;38806;51.554;5.704;2022-10-22T06:33:30;97436.34;;;12.34
50496;BMP280;38806;51.554;5.704;2022-10-22T06:35:31;97459.50;;;12.27
50496;BMP280;38806;51.554;5.704;2022-10-22T06:37:32;97452.25;;;12.30
50496;BMP280;38806;51.554;5.704;2022-10-22T06:39:32;97426.56;;;12.39
50496;BMP280;38806;51.554;5.704;2022-10-22T06:41:32;97482.88;;;12.25
50496;BMP280;38806;51.554;5.704;2022-10-22T06:43:33;97408.25;;;12.47
50496;BMP280;38806;51.554;5.704;2022-10-22T06:45:33;97438.06;;;12.39
50496;BMP280;38806;51.554;5.704;2022-10-22T06:47:33;97379.41;;;12.59
50496;BMP280;38806;51.554;5.704;2022-10-22T06:49:34;97364.22;;;12.63
50496;BMP280;38806;51.554;5.704;2022-10-22T06:51:34;97460.31;;;12.40
50496;BMP280;38806;51.554;5.704;2022-10-22T06:53:35;97442.44;;;12.44
50496;BMP280;38806;51.554;5.704;2022-10-22T06:55:36;97366.63;;;12.69
50496;BMP280;38806;51.554;5.704;2022-10-22T06:57:36;97217.75;;;13.13
50496;BMP280;38806;51.554;5.704;2022-10-22T06:59:37;97218.69;;;13.18
50496;BMP280;38806;51.554;5.704;2022-10-22T07:01:37;97196.91;;;13.25
50496;BMP280;38806;51.554;5.704;2022-10-22T07:03:39;97223.63;;;13.21
50496;BMP280;38806;51.554;5.704;2022-10-22T07:05:40;97136.06;;;13.46
50496;BMP280;38806;51.554;5.704;2022-10-22T07:07:40;97138.88;;;13.48
50496;BMP280;38806;51.554;5.704;2022-10-22T07:09:41;97081.84;;;13.65
50496;BMP280;38806;51.554;5.704;2022-10-22T07:11:44;97124.56;;;13.57
50496;BMP280;38806;51.554;5.704;2022-10-22T07:13:45;97096.91;;;13.68
50496;BMP280;38806;51.554;5.704;2022-10-22T07:15:51;97096.41;;;13.71
50496;BMP280;38806;51.554;5.704;2022-10-22T07:17:52;97076.06;;;13.82
50496;BMP280;38806;51.554;5.704;2022-10-22T07:19:52;97087.47;;;13.81
50496;BMP280;38806;51.554;5.704;2022-10-22T07:21:53;97110.84;;;13.76
50496;BMP280;38806;51.554;5.704;2022-10-22T07:23:53;97100.47;;;13.84
50496;BMP280;38806;51.554;5.704;2022-10-22T07:25:53;97104.63;;;13.85
50496;BMP280;38806;51.554;5.704;2022-10-22T07:27:53;97169.28;;;13.71
50496;BMP280;38806;51.554;5.704;2022-10-22T07:29:54;97213.91;;;13.61
50496;BMP280;38806;51.554;5.704;2022-10-22T07:31:54;97174.69;;;13.71
50496;BMP280;38806;51.554;5.704;2022-10-22T07:33:55;97189.00;;;13.74
50496;BMP280;38806;51.554;5.704;2022-10-22T07:35:57;97204.25;;;13.69
50496;BMP280;38806;51.554;5.704;2022-10-22T07:37:59;97170.84;;;13.86
50496;BMP280;38806;51.554;5.704;2022-10-22T07:40:00;97128.31;;;13.98
50496;BMP280;38806;51.554;5.704;2022-10-22T07:42:00;97096.69;;;14.13
50496;BMP280;38806;51.554;5.704;2022-10-22T07:44:00;97128.16;;;14.08
50496;BMP280;38806;51.554;5.704;2022-10-22T07:46:01;97105.25;;;14.21
50496;BMP280;38806;51.554;5.704;2022-10-22T07:48:02;97111.56;;;14.25
50496;BMP280;38806;51.554;5.704;2022-10-22T07:50:03;97056.41;;;14.42
50496;BMP280;38806;51.554;5.704;2022-10-22T07:52:05;97056.94;;;14.52
50496;BMP280;38806;51.554;5.704;2022-10-22T07:54:06;97064.56;;;14.56
50496;BMP280;38806;51.554;5.704;2022-10-22T07:56:07;97072.19;;;14.59
50496;BMP280;38806;51.554;5.704;2022-10-22T07:58:07;97128.50;;;14.51
50496;BMP280;38806;51.554;5.704;2022-10-22T08:00:08;97196.00;;;14.37
50496;BMP280;38806;51.554;5.704;2022-10-22T08:02:10;97206.34;;;14.41
50496;BMP280;38806;51.554;5.704;2022-10-22T08:04:11;97217.25;;;14.43
50496;BMP280;38806;51.554;5.704;2022-10-22T08:06:12;97219.59;;;14.49
50496;BMP280;38806;51.554;5.704;2022-10-22T08:08:14;97246.63;;;14.49
50496;BMP280;38806;51.554;5.704;2022-10-22T08:10:14;97240.84;;;14.54
50496;BMP280;38806;51.554;5.704;2022-10-22T08:12:15;97240.00;;;14.63
50496;BMP280;38806;51.554;5.704;2022-10-22T08:14:15;97175.63;;;14.85
50496;BMP280;38806;51.554;5.704;2022-10-22T08:16:15;97076.34;;;15.27
50496;BMP280;38806;51.554;5.704;2022-10-22T08:18:15;96952.97;;;15.78
50496;BMP280;38806;51.554;5.704;2022-10-22T08:20:16;96819.19;;;16.33
50496;BMP280;38806;51.554;5.704;2022-10-22T08:22:16;96620.47;;;17.21
50496;BMP280;38806;51.554;5.704;2022-10-22T08:24:16;96616.41;;;17.61
50496;BMP280;38806;51.554;5.704;2022-10-22T08:26:17;96717.81;;;17.68
50496;BMP280;38806;51.554;5.704;2022-10-22T08:28:17;96876.63;;;17.65
50496;BMP280;38806;51.554;5.704;2022-10-22T08:30:18;97177.72;;;17.23
50496;BMP280;38806;51.554;5.704;2022-10-22T08:32:18;97610.50;;;16.40
50496;BMP280;38806;51.554;5.704;2022-10-22T08:34:19;97572.84;;;16.72
50496;BMP280;38806;51.554;5.704;2022-10-22T08:36:19;97666.84;;;16.93
50496;BMP280;38806;51.554;5.704;2022-10-22T08:38:19;97881.66;;;16.87
50496;BMP280;38806;51.554;5.704;2022-10-22T08:40:29;97900.34;;;17.55
50496;BMP280;38806;51.554;5.704;2022-10-22T08:42:58;98103.03;;;18.09
50496;BMP280;38806;51.554;5.704;2022-10-22T08:45:07;98491.34;;;18.33
50496;BMP280;38806;51.554;5.704;2022-10-22T08:49:48;99058.09;;;17.95
50496;BMP280;38806;51.554;5.704;2022-10-22T08:51:49;99441.75;;;17.19
50496;BMP280;38806;51.554;5.704;2022-10-22T08:56:13;99429.69;;;16.95
50496;BMP280;38806;51.554;5.704;2022-10-22T09:00:46;99322.59;;;16.64
50496;BMP280;38806;51.554;5.704;2022-10-22T09:05:05;99088.25;;;16.51
50496;BMP280;38806;51.554;5.704;2022-10-22T09:07:11;99055.75;;;16.61
50496;BMP280;38806;51.554;5.704;2022-10-22T09:09:15;99049.19;;;16.64
50496;BMP280;38806;51.554;5.704;2022-10-22T09:13:23;99085.50;;;16.69
50496;BMP280;38806;51.554;5.704;2022-10-22T09:15:23;99098.41;;;16.78
50496;BMP280;38806;51.554;5.704;2022-10-22T09:17:51;99149.28;;;16.77
50496;BMP280;38806;51.554;5.704;2022-10-22T09:20:01;98988.34;;;17.04
50496;BMP280;38806;51.554;5.704;2022-10-22T09:26:40;99463.59;;;16.86
50496;BMP280;38806;51.554;5.704;2022-10-22T09:28:41;99487.88;;;16.84
50496;BMP280;38806;51.554;5.704;2022-10-22T09:30:42;99531.53;;;16.79
50496;BMP280;38806;51.554;5.704;2022-10-22T09:32:42;99482.56;;;16.94
50496;BMP280;38806;51.554;5.704;2022-10-22T09:34:44;99518.28;;;16.83
50496;BMP280;38806;51.554;5.704;2022-10-22T09:36:44;99482.97;;;16.83
50496;BMP280;38806;51.554;5.704;2022-10-22T09:38:53;99544.81;;;16.67
50496;BMP280;38806;51.554;5.704;2022-10-22T09:40:56;99555.63;;;16.75
50496;BMP280;38806;51.554;5.704;2022-10-22T09:42:57;99606.19;;;16.63
50496;BMP280;38806;51.554;5.704;2022-10-22T09:44:58;99599.97;;;16.77
50496;BMP280;38806;51.554;5.704;2022-10-22T09:46:58;99638.75;;;16.63
50496;BMP280;38806;51.554;5.704;2022-10-22T09:49:02;99659.94;;;16.57
50496;BMP280;38806;51.554;5.704;2022-10-22T09:51:20;99540.50;;;16.57
50496;BMP280;38806;51.554;5.704;2022-10-22T09:53:25;99609.28;;;16.59
50496;BMP280;38806;51.554;5.704;2022-10-22T09:55:27;99574.28;;;16.71
50496;BMP280;38806;51.554;5.704;2022-10-22T09:57:28;99551.72;;;16.61
50496;BMP280;38806;51.554;5.704;2022-10-22T09:59:31;99473.50;;;16.67
50496;BMP280;38806;51.554;5.704;2022-10-22T10:01:34;99547.91;;;16.64
50496;BMP280;38806;51.554;5.704;2022-10-22T10:03:34;99353.13;;;16.89
50496;BMP280;38806;51.554;5.704;2022-10-22T10:05:35;99351.63;;;17.13
50496;BMP280;38806;51.554;5.704;2022-10-22T10:07:36;99485.13;;;17.09
50496;BMP280;38806;51.554;5.704;2022-10-22T10:09:36;99673.47;;;17.12
50496;BMP280;38806;51.554;5.704;2022-10-22T10:11:45;99635.91;;;17.50
50496;BMP280;38806;51.554;5.704;2022-10-22T10:20:37;99900.94;;;17.67
50496;BMP280;38806;51.554;5.704;2022-10-22T10:23:18;100067.25;;;17.55
50496;BMP280;38806;51.554;5.704;2022-10-22T10:26:03;100243.75;;;17.31
50496;BMP280;38806;51.554;5.704;2022-10-22T10:30:18;100280.28;;;17.14
50496;BMP280;38806;51.554;5.704;2022-10-22T10:34:45;100212.53;;;17.32
50496;BMP280;38806;51.554;5.704;2022-10-22T10:37:14;100280.88;;;17.28
50496;BMP280;38806;51.554;5.704;2022-10-22T10:39:39;100375.06;;;17.25
50496;BMP280;38806;51.554;5.704;2022-10-22T10:48:21;100396.00;;;17.97
50496;BMP280;38806;51.554;5.704;2022-10-22T10:52:36;100381.16;;;18.74
50496;BMP280;38806;51.554;5.704;2022-10-22T10:57:24;100623.78;;;18.76
50496;BMP280;38806;51.554;5.704;2022-10-22T11:06:30;100951.28;;;19.24
50496;BMP280;38806;51.554;5.704;2022-10-22T11:10:43;101054.44;;;19.33
50496;BMP280;38806;51.554;5.704;2022-10-22T11:12:46;101199.25;;;19.22
50496;BMP280;38806;51.554;5.704;2022-10-22T11:17:25;101173.16;;;19.55
50496;BMP280;38806;51.554;5.704;2022-10-22T11:20:05;101242.69;;;19.61
50496;BMP280;38806;51.554;5.704;2022-10-22T11:22:14;101322.56;;;19.82
50496;BMP280;38806;51.554;5.704;2022-10-22T11:24:23;101473.41;;;19.75
50496;BMP280;38806;51.554;5.704;2022-10-22T11:26:40;101411.47;;;19.91
50496;BMP280;38806;51.554;5.704;2022-10-22T11:28:49;101551.41;;;19.84
50496;BMP280;38806;51.554;5.704;2022-10-22T11:30:57;101575.66;;;19.74
50496;BMP280;38806;51.554;5.704;2022-10-22T11:33:01;101444.53;;;20.21
50496;BMP280;38806;51.554;5.704;2022-10-22T11:35:04;101356.53;;;21.08
50496;BMP280;38806;51.554;5.704;2022-10-22T11:37:06;101714.44;;;20.63
50496;BMP280;38806;51.554;5.704;2022-10-22T11:39:39;101573.97;;;20.94
50496;BMP280;38806;51.554;5.704;2022-10-22T11:41:44;101656.47;;;20.85
50496;BMP280;38806;51.554;5.704;2022-10-22T11:48:17;101854.47;;;20.29
50496;BMP280;38806;51.554;5.704;2022-10-22T11:50:22;101807.03;;;20.27
50496;BMP280;38806;51.554;5.704;2022-10-22T11:54:46;101751.75;;;20.34
50496;BMP280;38806;51.554;5.704;2022-10-22T11:56:51;101815.84;;;19.93
50496;BMP280;38806;51.554;5.704;2022-10-22T11:58:53;101761.22;;;19.93
50496;BMP280;38806;51.554;5.704;2022-10-22T12:01:17;101631.69;;;20.28
50496;BMP280;38806;51.554;5.704;2022-10-22T12:03:22;101735.16;;;20.05
50496;BMP280;38806;51.554;5.704;2022-10-22T12:07:31;101453.63;;;20.94
50496;BMP280;38806;51.554;5.704;2022-10-22T12:09:32;101640.22;;;21.21
50496;BMP280;38806;51.554;5.704;2022-10-22T12:11:44;101768.53;;;21.32
50496;BMP280;38806;51.554;5.704;2022-10-22T12:14:00;101867.81;;;21.32
50496;BMP280;38806;51.554;5.704;2022-10-22T12:16:02;101933.31;;;21.64
50496;BMP280;38806;51.554;5.704;2022-10-22T12:18:04;102009.78;;;21.49
50496;BMP280;38806;51.554;5.704;2022-10-22T12:20:11;101968.59;;;21.68
50496;BMP280;38806;51.554;5.704;2022-10-22T12:22:22;101933.16;;;22.11
50496;BMP280;38806;51.554;5.704;2022-10-22T12:24:23;102125.75;;;21.52
50496;BMP280;38806;51.554;5.704;2022-10-22T12:26:27;102089.81;;;21.55
50496;BMP280;38806;51.554;5.704;2022-10-22T12:28:28;102082.25;;;21.48
50496;BMP280;38806;51.554;5.704;2022-10-22T12:30:31;101977.09;;;21.98
50496;BMP280;38806;51.554;5.704;2022-10-22T12:32:38;102008.94;;;22.09
50496;BMP280;38806;51.554;5.704;2022-10-22T12:34:48;102100.31;;;21.77
50496;BMP280;38806;51.554;5.704;2022-10-22T12:36:50;102159.00;;;21.56
50496;BMP280;38806;51.554;5.704;2022-10-22T12:38:51;102080.63;;;21.66
50496;BMP280;38806;51.554;5.704;2022-10-22T12:40:54;102024.50;;;21.72
50496;BMP280;38806;51.554;5.704;2022-10-22T12:42:57;102129.06;;;21.18
50496;BMP280;38806;51.554;5.704;2022-10-22T12:44:58;102138.88;;;20.82
50496;BMP280;38806;51.554;5.704;2022-10-22T12:46:58;102008.91;;;21.07
50496;BMP280;38806;51.554;5.704;2022-10-22T12:49:00;102043.56;;;20.86
50496;BMP280;38806;51.554;5.704;2022-10-22T12:51:03;102141.16;;;20.46
50496;BMP280;38806;51.554;5.704;2022-10-22T12:53:14;102004.81;;;20.55
50496;BMP280;38806;51.554;5.704;2022-10-22T12:55:16;101904.50;;;21.16
50496;BMP280;38806;51.554;5.704;2022-10-22T12:57:18;102055.03;;;20.84
50496;BMP280;38806;51.554;5.704;2022-10-22T12:59:32;101883.19;;;21.22
50496;BMP280;38806;51.554;5.704;2022-10-22T13:01:37;101777.28;;;21.72
50496;BMP280;38806;51.554;5.704;2022-10-22T13:03:50;102067.53;;;21.25